Arlington, VA

10:02 AM EDT on May 28, 2015 (GMT -0400)
Ashton Heights | | Change Station
CLOSE
Current Station
Personal Weather Station
Location: Arlington, VA
Elevation: 280 ft
Nearby Weather Stations

Elev 280 ft 38.88 °N, 77.10 °W | Updated 2 minutes ago

Partly Cloudy
Partly Cloudy
84.4 °F
Feels Like 97 °F
N
1.6
Wind Variable Wind from NE
Gusts 1.6 mph

Today
High -- | Low -- °F
--% Chance of Precip.
Yesterday
High -- | Low -- °F
Precip. -- in
5:46 AM 8:24 PM
Waxing Gibbous, 76% visible
Pressure 30.19 in
Visibility 10.0 miles
Clouds Scattered Clouds 7000 ft
Overcast 25000 ft
Heat Index 97 °F
Dew Point 80 °F
Humidity 85%
Rainfall 0.00 in
Snow Depth Not available.
UV 2 out of 12
Pollen 8.00 out of 12
Air Quality Not available.
Flu Activity No Activity
METAR KDCA 281352Z 16005KT 10SM SCT070 OVC250 26/21 A3019 RMK AO2 SLP223 T02610211

More Conditions Fewer Conditions

Pressure 30.19 in
Visibility 10.0 miles
Clouds Scattered Clouds 7000 ft
Overcast 25000 ft
Heat Index 97 °F
Dew Point 80 °F
Humidity 85%
Rainfall 0.00 in
Snow Depth Not available.
UV 2 out of 12
Pollen 8.00 out of 12
Air Quality Not available.
Flu Activity No Activity
METAR KDCA 281352Z 16005KT 10SM SCT070 OVC250 26/21 A3019 RMK AO2 SLP223 T02610211

More Conditions Fewer Conditions

10-Day Weather Forecast

Almanac

Astronomy

May. 28, 2015 Rise Set
Actual Time
Civil Twilight
Nautical Twilight
Astronomical Twilight
Moon
Length of Visible Light
Length of Day
Tomorrow will be .
, % of the Moon is Illuminated

Today's Extremes

State Highs State Lows

Community

WunderPhotos

Upload Photos

1,824,979 photos uploaded!

WunderBlogs® & News

Nearby

Air Quality

  Air Quality AQ Index Pollutant
Not available.

Snow Depth

Station Depth Elevation

Earthquake Activity

City Distance Mag. Time & Date
Minimum magnitude displayed is 2.5.

Coastal Water Temperatures

Place Temperature

Stations

Nearby Weather Stations

Station Location Temp. Windchill Dew Point Humidity Wind Precip. Elev Updated Type